Terminal Aerodrome Forecast
Issued by NWS

Current Version | Previous Version | Text Only | Print | Product List | Glossary On
Versions: 1 2 3 4 5 6 7 8 9 10 11 12 13 14 15 16 17
000
FTAK31 PANC 291137
TAFACD
TAF
PACD 291137Z 2912/3012 VRB06KT P6SM VCSH SCT025 BKN040
     FM292100 04012KT P6SM VCSH SCT015 BKN030
     FM300100 35012KT P6SM -SHRA BKN015 BKN030=

USA.gov is the U.S. government's official web portal to all federal, state and local government web resources and services.